Time;durP1;ratioP1;P1;durP2;ratioP2;P2;SDS_P1;SDS_P2;PMS_P1;PMS_P2;Temp;Humidity;BMP_temperature;BMP_pressure;BME280_temperature;BME280_humidity;BME280_pressure;Samples;Min_cycle;Max_cycle;Signal;HPM_P1;HPM_P2
2021/12/11 00:02:19;;;;;;;17.23;7.32;;;;;;;3.70;92.80;100437.06;4860485;29;20057;-45
2021/12/11 00:05:08;;;;;;;12.50;7.15;;;;;;;3.71;93.20;100441.41;4848105;29;20045;-47
2021/12/11 00:07:57;;;;;;;15.43;7.68;;;;;;;3.70;92.89;100449.72;4877494;29;20125;-48
2021/12/11 00:10:49;;;;;;;16.58;7.22;;;;;;;3.70;93.42;100450.53;4878400;29;20049;-51
2021/12/11 00:13:39;;;;;;;14.23;7.47;;;;;;;3.71;93.19;100456.75;4877931;29;20045;-50
2021/12/11 00:16:28;;;;;;;16.38;7.75;;;;;;;3.69;93.30;100470.44;4875066;29;20128;-50
2021/12/11 00:19:25;;;;;;;13.52;7.88;;;;;;;3.67;93.45;100477.13;4876607;29;20457;-45
2021/12/11 00:22:16;;;;;;;19.13;7.95;;;;;;;3.66;93.20;100470.94;4876566;29;20056;-49
2021/12/11 00:25:09;;;;;;;13.35;7.57;;;;;;;3.62;93.71;100481.31;4877289;29;20049;-47
2021/12/11 00:28:05;;;;;;;14.85;7.68;;;;;;;3.60;93.89;100479.91;4875820;29;20057;-50
2021/12/11 00:30:53;;;;;;;15.40;7.93;;;;;;;3.60;94.13;100490.69;4876360;29;20064;-49
2021/12/11 00:33:41;;;;;;;16.85;8.40;;;;;;;3.58;93.95;100496.31;4876950;29;20045;-48
2021/12/11 00:36:32;;;;;;;15.02;8.05;;;;;;;3.58;94.05;100506.25;4877278;29;20069;-47
2021/12/11 00:39:20;;;;;;;15.07;8.57;;;;;;;3.58;94.45;100517.03;4877449;29;20060;-47
2021/12/11 00:42:10;;;;;;;16.13;9.48;;;;;;;3.57;94.36;100520.78;4876379;29;20057;-49
2021/12/11 00:44:59;;;;;;;17.27;8.90;;;;;;;3.57;94.79;100523.47;4858658;29;20109;-47
2021/12/11 00:48:08;;;;;;;18.00;9.50;;;;;;;3.54;95.01;100532.84;4860118;29;20433;-49
2021/12/11 00:51:02;;;;;;;16.08;9.35;;;;;;;3.56;94.47;100529.91;4858396;29;20149;-48
2021/12/11 00:53:57;;;;;;;17.70;9.95;;;;;;;3.56;94.79;100540.69;4853527;29;20049;-48
2021/12/11 00:56:46;;;;;;;16.73;10.50;;;;;;;3.56;95.44;100540.69;4876503;29;20512;-47
2021/12/11 00:59:34;;;;;;;15.75;11.15;;;;;;;3.57;95.59;100550.41;4876599;29;20068;-47
2021/12/11 01:02:21;;;;;;;21.70;11.88;;;;;;;3.56;95.26;100556.84;4877034;29;20057;-46
2021/12/11 01:04:52;;;;;;;16.85;11.20;;;;;;;3.57;95.51;100561.19;4844776;29;20057;-50
2021/12/11 01:07:40;;;;;;;22.50;12.10;;;;;;;3.58;95.10;100565.53;4876917;29;20125;-46
2021/12/11 01:10:28;;;;;;;19.55;11.23;;;;;;;3.58;95.14;100570.91;4877250;29;20519;-45
2021/12/11 01:13:20;;;;;;;17.05;10.70;;;;;;;3.59;95.79;100578.78;4876459;29;20131;-44
2021/12/11 01:16:12;;;;;;;20.08;11.38;;;;;;;3.59;95.52;100589.53;4877902;29;20045;-46
2021/12/11 01:19:03;;;;;;;20.88;11.73;;;;;;;3.61;95.74;100595.53;4878273;29;20133;-45
2021/12/11 01:21:59;;;;;;;21.88;11.88;;;;;;;3.64;95.06;100596.94;4878069;29;20124;-45
2021/12/11 01:24:48;;;;;;;;;;;;;;;3.67;94.85;100596.47;4878008;29;20057;-48
2021/12/11 01:27:32;;;;;;;18.35;11.63;;;;;;;3.68;94.74;100608.91;4861630;29;19923;-51
2021/12/11 01:30:30;;;;;;;17.10;10.98;;;;;;;3.68;94.54;100608.91;4875506;29;20056;-50
2021/12/11 01:33:15;;;;;;;17.27;11.10;;;;;;;3.68;94.17;100625.09;4878562;29;20048;-47
2021/12/11 01:36:05;;;;;;;16.67;11.05;;;;;;;3.69;94.59;100629.41;4881372;29;20515;-45
2021/12/11 01:39:03;;;;;;;17.20;11.55;;;;;;;3.70;94.49;100633.75;4880992;29;20113;-48
2021/12/11 01:41:53;;;;;;;17.10;11.95;;;;;;;3.68;94.45;100635.88;4877980;29;20141;-46
2021/12/11 01:44:44;;;;;;;19.73;12.30;;;;;;;3.65;94.99;100636.28;4879457;29;20053;-44
2021/12/11 01:47:34;;;;;;;20.20;12.15;;;;;;;3.63;95.17;100639.25;4881098;29;20041;-45
2021/12/11 01:50:35;;;;;;;17.33;12.23;;;;;;;3.67;95.31;100644.97;4881189;29;20444;-47
2021/12/11 01:53:23;;;;;;;17.70;11.57;;;;;;;3.69;95.36;100656.34;4864694;29;20052;-47
2021/12/11 01:56:17;;;;;;;20.35;11.57;;;;;;;3.71;95.30;100665.03;4879784;29;20048;-46
2021/12/11 01:59:19;;;;;;;18.25;11.65;;;;;;;3.72;94.58;100666.69;4881256;29;20049;-45
2021/12/11 02:02:22;;;;;;;19.80;11.20;;;;;;;3.71;94.41;100680.41;4878589;29;20060;-45
2021/12/11 02:05:12;;;;;;;21.13;12.25;;;;;;;3.69;93.63;100691.38;4870761;29;20045;-50
2021/12/11 02:08:03;;;;;;;17.90;11.77;;;;;;;3.69;93.78;100695.97;4880688;29;20060;-48
2021/12/11 02:11:01;;;;;;;17.73;11.50;;;;;;;3.67;94.04;100706.94;4879541;29;20060;-48
2021/12/11 02:13:55;;;;;;;21.13;12.50;;;;;;;3.65;94.04;100722.50;4877088;29;20274;-48
2021/12/11 02:16:46;;;;;;;18.60;12.60;;;;;;;3.64;94.51;100718.19;4878419;29;20465;-46
2021/12/11 02:19:39;;;;;;;21.20;12.40;;;;;;;3.64;94.60;100731.66;4880578;29;20085;-50
2021/12/11 02:22:30;;;;;;;20.20;13.73;;;;;;;3.62;94.17;100729.19;4878571;29;20511;-45
2021/12/11 02:25:25;;;;;;;20.35;13.32;;;;;;;3.62;94.47;100728.34;4879180;29;20463;-49
2021/12/11 02:28:16;;;;;;;18.92;12.88;;;;;;;3.63;94.41;100722.75;4880402;29;20491;-47
2021/12/11 02:31:06;;;;;;;20.30;13.50;;;;;;;3.67;94.35;100739.28;4876683;29;20055;-49
2021/12/11 02:34:26;;;;;;;20.10;13.30;;;;;;;3.69;94.27;100752.53;4878889;29;20136;-48
2021/12/11 02:37:38;;;;;;;21.02;12.68;;;;;;;3.69;94.22;100752.53;4798235;29;20186;-50
2021/12/11 02:40:35;;;;;;;21.67;13.63;;;;;;;3.67;94.04;100755.44;4784338;30;20078;-49
2021/12/11 02:43:31;;;;;;;17.20;11.90;;;;;;;3.66;93.28;100761.09;4812320;29;20058;-46
2021/12/11 02:46:31;;;;;;;21.10;13.30;;;;;;;3.62;93.08;100761.50;4804782;29;20143;-45
2021/12/11 02:49:26;;;;;;;21.73;13.05;;;;;;;3.63;93.33;100765.00;4821132;29;20148;-48
2021/12/11 02:52:30;;;;;;;19.48;13.43;;;;;;;3.62;93.15;100772.28;4809939;29;20050;-50
2021/12/11 02:55:12;;;;;;;20.13;13.37;;;;;;;3.62;92.85;100761.50;4789595;29;20488;-48
2021/12/11 02:58:09;;;;;;;19.98;13.98;;;;;;;3.62;93.12;100769.59;4805425;29;20776;-48
2021/12/11 03:01:08;;;;;;;18.58;12.57;;;;;;;3.63;93.26;100773.09;4803217;29;20059;-48
2021/12/11 03:03:43;;;;;;;17.15;12.57;;;;;;;3.63;92.75;100776.63;4802775;29;20515;-49
2021/12/11 03:06:39;;;;;;;18.42;13.02;;;;;;;3.64;93.14;100785.53;4816504;29;20421;-47
2021/12/11 03:09:28;;;;;;;;;;;;;;;3.67;93.32;100789.66;4821518;29;20069;-47
2021/12/11 03:12:17;;;;;;;15.85;12.18;;;;;;;3.67;93.71;100793.16;4821887;29;19925;-48
2021/12/11 03:15:07;;;;;;;17.08;12.60;;;;;;;3.66;92.98;100794.22;4861147;29;20056;-48
2021/12/11 03:17:55;;;;;;;20.33;14.00;;;;;;;3.61;92.96;100802.97;4866179;29;20209;-48
2021/12/11 03:20:44;;;;;;;17.52;12.55;;;;;;;3.59;92.56;100809.63;4859448;29;20114;-48
2021/12/11 03:23:32;;;;;;;18.15;13.18;;;;;;;3.59;92.27;100815.03;4876150;29;20121;-47
2021/12/11 03:26:20;;;;;;;22.50;14.13;;;;;;;3.59;92.81;100820.41;4879632;29;20105;-49
2021/12/11 03:29:08;;;;;;;20.05;13.77;;;;;;;3.59;92.25;100815.84;4878179;29;20117;-46
2021/12/11 03:31:56;;;;;;;17.50;13.10;;;;;;;3.58;92.65;100818.75;4877516;29;20239;-47
2021/12/11 03:34:44;;;;;;;17.30;12.43;;;;;;;3.56;92.18;100834.31;4876217;29;20496;-50
2021/12/11 03:37:32;;;;;;;16.77;12.60;;;;;;;3.53;92.17;100826.66;4877698;29;20045;-50
2021/12/11 03:40:20;;;;;;;16.45;11.57;;;;;;;3.53;92.75;100832.88;4878597;29;20049;-50
2021/12/11 03:43:11;;;;;;;16.60;12.57;;;;;;;3.57;92.79;100834.09;4877616;29;20065;-49
2021/12/11 03:46:04;;;;;;;14.60;11.25;;;;;;;3.62;93.42;100830.72;4875374;29;20049;-48
2021/12/11 03:48:56;;;;;;;14.18;11.15;;;;;;;3.65;92.84;100830.28;4878837;29;20128;-49
2021/12/11 03:51:45;;;;;;;13.73;10.40;;;;;;;3.70;92.83;100833.13;4876573;29;20120;-45
2021/12/11 03:54:35;;;;;;;14.82;11.65;;;;;;;3.69;92.51;100839.56;4878033;29;20056;-52
2021/12/11 03:57:29;;;;;;;14.73;11.02;;;;;;;3.67;92.96;100841.66;4856209;29;20053;-51
2021/12/11 04:00:19;;;;;;;14.05;10.25;;;;;;;3.69;93.10;100842.28;4859412;29;20065;-48
2021/12/11 04:03:08;;;;;;;16.33;12.68;;;;;;;3.69;92.67;100844.97;4858675;29;20587;-46
2021/12/11 04:05:57;;;;;;;15.93;12.32;;;;;;;3.68;93.10;100845.19;4863968;29;20081;-46
2021/12/11 04:08:46;;;;;;;14.07;11.20;;;;;;;3.69;92.88;100847.66;4878421;29;20040;-50
2021/12/11 04:11:35;;;;;;;15.48;11.77;;;;;;;3.67;93.30;100855.13;4878518;29;20089;-52
2021/12/11 04:14:29;;;;;;;16.63;12.98;;;;;;;3.65;93.08;100865.31;4878532;29;20049;-50
2021/12/11 04:17:21;;;;;;;15.38;12.10;;;;;;;3.64;92.81;100860.97;4877066;29;20479;-47
2021/12/11 04:20:14;;;;;;;15.95;11.63;;;;;;;3.65;92.75;100868.00;4859627;29;20053;-47
2021/12/11 04:23:02;;;;;;;14.38;11.95;;;;;;;3.65;93.01;100869.88;4860144;29;20123;-51
2021/12/11 04:25:53;;;;;;;13.82;11.07;;;;;;;3.62;92.68;100873.84;4858942;29;20046;-47
2021/12/11 04:28:42;;;;;;;15.02;11.25;;;;;;;3.59;93.16;100874.28;4875769;29;20101;-47
2021/12/11 04:31:34;;;;;;;13.70;11.52;;;;;;;3.55;92.67;100884.66;4875747;29;20124;-50
2021/12/11 04:34:23;;;;;;;13.35;9.80;;;;;;;3.53;93.17;100892.13;4874588;29;20057;-47
2021/12/11 04:37:21;;;;;;;14.05;10.98;;;;;;;3.56;93.73;100897.09;4876848;29;20113;-48
2021/12/11 04:40:13;;;;;;;12.68;10.63;;;;;;;3.56;93.29;100902.50;4877240;29;20082;-47
2021/12/11 04:43:07;;;;;;;12.32;9.98;;;;;;;3.58;93.54;100902.25;4877021;29;20083;-49
2021/12/11 04:46:01;;;;;;;14.82;10.75;;;;;;;3.55;92.58;100900.84;4878493;29;20381;-50
2021/12/11 04:49:05;;;;;;;14.77;12.50;;;;;;;3.54;93.25;100903.75;4875841;29;20052;-47
2021/12/11 04:52:12;;;;;;;12.43;10.27;;;;;;;3.55;93.16;100908.91;4835491;29;20045;-51
2021/12/11 04:55:36;;;;;;;12.05;9.63;;;;;;;3.55;92.91;100908.09;4874179;29;20057;-48
2021/12/11 05:10:20;;;;;;;16.50;13.77;;;;;;;3.50;93.79;100935.69;4870821;29;20078;-51
2021/12/11 05:13:07;;;;;;;16.88;15.07;;;;;;;3.51;93.75;100948.13;4880546;29;20049;-54
2021/12/11 05:15:59;;;;;;;17.63;14.57;;;;;;;3.52;93.72;100939.00;4880170;29;20049;-51
2021/12/11 05:18:47;;;;;;;18.55;14.75;;;;;;;3.53;93.63;100951.41;4862400;29;20141;-54
2021/12/11 05:21:35;;;;;;;17.52;14.82;;;;;;;3.54;94.03;100953.06;4877871;29;20053;-49
2021/12/11 05:24:22;;;;;;;15.75;13.07;;;;;;;3.60;94.45;100956.75;4879254;29;20412;-47
2021/12/11 05:27:10;;;;;;;18.23;16.25;;;;;;;3.63;94.13;100969.78;4867229;29;20077;-47
2021/12/11 05:29:58;;;;;;;19.65;15.57;;;;;;;3.65;93.96;100975.78;4879640;29;20049;-50
2021/12/11 05:32:46;;;;;;;19.98;16.05;;;;;;;3.66;94.28;100977.44;4881149;29;20492;-48
2021/12/11 05:35:36;;;;;;;18.88;15.70;;;;;;;3.67;93.91;100964.78;4881432;29;20045;-52
2021/12/11 05:38:24;;;;;;;19.50;17.27;;;;;;;3.68;93.98;100969.13;4862322;29;20053;-49
2021/12/11 05:41:13;;;;;;;20.90;17.33;;;;;;;3.67;94.09;100965.63;4875817;29;20049;-49
2021/12/11 05:44:01;;;;;;;20.50;16.17;;;;;;;3.67;94.14;100975.56;4879849;29;20049;-47
2021/12/11 05:46:52;;;;;;;20.35;16.60;;;;;;;3.68;94.43;100988.00;4861844;29;20049;-49
2021/12/11 05:49:41;;;;;;;19.38;16.63;;;;;;;3.66;94.48;100990.09;4861350;29;20069;-48
2021/12/11 05:52:29;;;;;;;19.70;16.83;;;;;;;3.65;94.44;100991.13;4878738;29;20135;-51
2021/12/11 05:55:19;;;;;;;19.83;15.57;;;;;;;3.67;94.28;100986.34;4880533;29;20053;-47
2021/12/11 05:58:11;;;;;;;21.60;17.45;;;;;;;3.65;94.83;100989.25;4881026;29;20057;-48
2021/12/11 06:00:58;;;;;;;20.88;18.27;;;;;;;3.67;95.19;100989.88;4879943;29;20163;-48
2021/12/11 06:03:46;;;;;;;19.90;16.48;;;;;;;3.68;95.57;100991.53;4879233;29;20068;-49
2021/12/11 06:06:35;;;;;;;18.85;15.82;;;;;;;3.69;95.30;100998.56;4878871;29;20072;-48
2021/12/11 06:09:24;;;;;;;17.38;12.77;;;;;;;3.73;95.95;100999.78;4877859;29;20053;-47
2021/12/11 06:12:13;;;;;;;25.45;19.15;;;;;;;3.75;95.55;101003.09;4867396;29;20049;-44
2021/12/11 06:15:02;;;;;;;18.67;13.65;;;;;;;3.75;96.58;101003.09;4878795;29;20052;-49
2021/12/11 06:17:51;;;;;;;19.75;16.55;;;;;;;3.76;95.88;101010.13;4879582;29;20053;-50
2021/12/11 06:20:38;;;;;;;24.60;18.35;;;;;;;3.74;96.37;101008.69;4879411;29;20052;-51
2021/12/11 06:23:28;;;;;;;26.30;19.95;;;;;;;3.70;96.42;101010.16;4876532;29;20065;-49
2021/12/11 06:26:16;;;;;;;23.80;18.17;;;;;;;3.67;96.04;101021.38;4880339;29;20417;-50
2021/12/11 06:29:04;;;;;;;24.42;18.90;;;;;;;3.65;96.97;101024.28;4880349;29;20053;-50
2021/12/11 06:31:52;;;;;;;24.13;16.92;;;;;;;3.68;96.78;101029.25;4878757;29;20492;-47
2021/12/11 06:34:40;;;;;;;25.42;19.83;;;;;;;3.68;97.21;101029.25;4860384;29;20057;-48
2021/12/11 06:37:27;;;;;;;24.50;19.50;;;;;;;3.73;97.56;101033.97;4858516;29;20049;-47
2021/12/11 06:40:17;;;;;;;26.30;20.02;;;;;;;3.72;97.40;101043.94;4862814;29;20106;-47
2021/12/11 06:43:05;;;;;;;25.23;18.42;;;;;;;3.70;96.49;101048.69;4879483;29;20432;-43
2021/12/11 06:45:53;;;;;;;26.08;18.75;;;;;;;3.66;97.05;101046.69;4877634;29;20116;-46
2021/12/11 06:48:40;;;;;;;24.02;19.23;;;;;;;3.64;97.45;101044.19;4864963;29;20128;-48
2021/12/11 06:51:29;;;;;;;23.65;17.60;;;;;;;3.67;97.32;101059.91;4875942;29;20053;-50
2021/12/11 06:54:17;;;;;;;24.08;17.77;;;;;;;3.63;97.27;101058.69;4872297;29;20057;-49
2021/12/11 06:57:05;;;;;;;27.45;21.17;;;;;;;3.59;97.59;101062.88;4879795;29;20049;-49
2021/12/11 06:59:52;;;;;;;25.67;20.60;;;;;;;3.57;97.46;101070.34;4879660;29;20153;-50
2021/12/11 07:02:40;;;;;;;27.10;21.35;;;;;;;3.55;97.82;101064.34;4875934;29;20053;-49
2021/12/11 07:05:28;;;;;;;23.05;18.70;;;;;;;3.57;98.17;101064.97;4878658;29;20053;-50
2021/12/11 07:08:17;;;;;;;23.58;17.95;;;;;;;3.61;97.99;101068.88;4879127;29;20056;-47
2021/12/11 07:11:07;;;;;;;22.85;18.77;;;;;;;3.65;98.09;101072.78;4879115;29;20060;-46
2021/12/11 07:13:54;;;;;;;23.92;19.00;;;;;;;3.65;98.47;101080.03;4877596;29;20496;-46
2021/12/11 07:16:43;;;;;;;24.58;18.27;;;;;;;3.66;98.61;101087.91;4878445;29;20052;-44
2021/12/11 07:19:31;;;;;;;21.35;14.88;;;;;;;3.70;98.58;101093.69;4879199;29;20061;-45
2021/12/11 07:22:19;;;;;;;24.23;18.25;;;;;;;3.79;99.17;101085.13;4879287;29;20047;-46
2021/12/11 07:25:22;;;;;;;28.33;21.17;;;;;;;3.77;98.42;101081.00;4871968;29;20053;-45
2021/12/11 07:28:11;;;;;;;22.25;14.68;;;;;;;3.78;99.40;101085.38;4877173;29;20069;-48
2021/12/11 07:31:00;;;;;;;20.33;15.20;;;;;;;3.77;99.04;101095.31;4876459;29;20056;-48
2021/12/11 07:33:49;;;;;;;22.88;15.63;;;;;;;3.85;100.00;101096.94;4873282;29;20484;-47
2021/12/11 07:36:36;;;;;;;27.65;19.83;;;;;;;3.81;99.91;101096.53;4876861;29;20045;-49
2021/12/11 07:39:25;;;;;;;24.75;19.90;;;;;;;3.77;100.00;101105.25;4878392;29;20049;-50
2021/12/11 07:42:12;;;;;;;25.65;19.80;;;;;;;3.74;100.00;101105.69;4878630;29;20404;-50
2021/12/11 07:45:02;;;;;;;27.60;20.55;;;;;;;3.72;100.00;101108.59;4876464;29;20041;-49
2021/12/11 07:47:50;;;;;;;24.23;18.48;;;;;;;3.74;100.00;101109.22;4879013;29;20477;-48
2021/12/11 07:50:39;;;;;;;24.83;18.45;;;;;;;3.74;100.00;101103.00;4878663;29;20200;-50
2021/12/11 07:53:26;;;;;;;26.05;19.15;;;;;;;3.75;100.00;101110.88;4878885;29;20041;-50
2021/12/11 07:56:17;;;;;;;24.65;18.23;;;;;;;3.78;100.00;101121.22;4877766;29;20077;-49
2021/12/11 07:59:06;;;;;;;23.02;17.50;;;;;;;3.80;100.00;101127.22;4874623;29;20068;-49
2021/12/11 08:01:55;;;;;;;21.73;17.30;;;;;;;3.83;100.00;101126.78;4874166;29;20140;-50
2021/12/11 08:04:43;;;;;;;22.17;17.55;;;;;;;3.86;100.00;101132.78;4874032;29;20049;-50
2021/12/11 08:07:31;;;;;;;21.95;17.20;;;;;;;3.88;100.00;101128.84;4876194;29;20518;-47
2021/12/11 08:10:22;;;;;;;24.05;16.55;;;;;;;3.87;100.00;101147.91;4876564;29;20059;-49
2021/12/11 08:13:10;;;;;;;22.05;16.20;;;;;;;3.87;100.00;101156.00;4874522;29;20061;-45
2021/12/11 08:15:59;;;;;;;22.45;16.38;;;;;;;3.89;100.00;101167.41;4877847;29;20084;-48
2021/12/11 08:18:46;;;;;;;20.85;15.85;;;;;;;3.91;100.00;101159.94;4858421;29;20053;-48
2021/12/11 08:21:34;;;;;;;22.23;15.43;;;;;;;3.93;100.00;101165.94;4855847;29;20045;-44
2021/12/11 08:24:22;;;;;;;21.08;15.27;;;;;;;3.93;100.00;101180.22;4860520;29;20057;-52
2021/12/11 08:27:17;;;;;;;21.17;13.48;;;;;;;3.96;100.00;101181.66;4875145;29;20053;-51
2021/12/11 08:30:06;;;;;;;18.08;11.40;;;;;;;3.99;100.00;101192.00;4874321;29;20057;-51
2021/12/11 08:32:54;;;;;;;17.55;10.88;;;;;;;4.00;100.00;101191.81;4877119;29;20064;-49
2021/12/11 08:35:42;;;;;;;13.63;8.68;;;;;;;4.04;100.00;101198.44;4876835;29;20148;-50
2021/12/11 08:38:30;;;;;;;16.02;8.57;;;;;;;4.07;100.00;101189.09;4875283;29;20064;-51
2021/12/11 08:41:22;;;;;;;15.88;8.35;;;;;;;4.09;100.00;101197.78;4876528;29;20097;-47
2021/12/11 08:44:13;;;;;;;15.70;8.05;;;;;;;4.10;100.00;101196.75;4880739;29;20057;-49
2021/12/11 08:47:03;;;;;;;14.77;7.30;;;;;;;4.13;100.00;101204.38;4880120;29;20060;-51
2021/12/11 08:49:52;;;;;;;15.80;7.60;;;;;;;4.16;100.00;101214.75;4879990;29;20045;-51
2021/12/11 08:52:40;;;;;;;14.77;7.30;;;;;;;4.22;100.00;101207.66;4863383;29;20061;-49
2021/12/11 08:55:38;;;;;;;15.98;7.15;;;;;;;4.26;100.00;101219.69;4879266;29;20049;-49
2021/12/11 08:58:27;;;;;;;13.52;6.70;;;;;;;4.26;100.00;101220.50;4881360;29;20060;-51
2021/12/11 09:01:24;;;;;;;14.82;7.50;;;;;;;4.26;100.00;101228.59;4879472;29;20053;-48
2021/12/11 09:04:19;;;;;;;13.95;6.32;;;;;;;4.30;100.00;101236.25;4879565;29;20148;-50
2021/12/11 09:07:15;;;;;;;17.60;8.80;;;;;;;4.33;100.00;101246.59;4877631;29;20053;-49
2021/12/11 09:10:12;;;;;;;19.13;8.15;;;;;;;4.36;100.00;101262.38;4879469;29;20298;-51
2021/12/11 09:13:35;;;;;;;17.48;9.13;;;;;;;4.39;100.00;101264.63;4879946;29;20060;-47
2021/12/11 09:16:31;;;;;;;17.42;9.77;;;;;;;4.40;100.00;101279.75;4879596;29;20061;-51
2021/12/11 09:19:23;;;;;;;15.70;9.98;;;;;;;4.40;100.00;101279.75;4879897;29;20097;-48
2021/12/11 09:22:22;;;;;;;17.00;9.88;;;;;;;4.53;100.00;101290.50;4879177;29;20072;-49
2021/12/11 09:25:16;;;;;;;16.13;9.93;;;;;;;4.51;100.00;101294.47;4876248;29;20073;-48
2021/12/11 09:28:12;;;;;;;17.10;10.27;;;;;;;4.49;100.00;101300.06;4866262;29;20101;-50
2021/12/11 09:31:11;;;;;;;20.13;10.98;;;;;;;4.47;100.00;101313.78;4878055;29;20500;-50
2021/12/11 09:34:05;;;;;;;21.98;12.32;;;;;;;4.44;100.00;101318.78;4861144;29;20140;-48
2021/12/11 09:36:57;;;;;;;20.27;12.55;;;;;;;4.39;100.00;101332.09;4860188;29;20053;-48
2021/12/11 09:39:55;;;;;;;20.30;13.25;;;;;;;4.35;100.00;101336.25;4873300;29;20085;-49
2021/12/11 09:42:43;;;;;;;20.88;13.35;;;;;;;4.30;100.00;101344.97;4880613;29;20057;-43
2021/12/11 09:45:38;;;;;;;18.17;12.57;;;;;;;4.27;100.00;101345.41;4880377;29;20132;-45
2021/12/11 09:48:26;;;;;;;;;;;;;;;4.23;100.00;101361.19;4874636;29;20057;-48
2021/12/11 09:51:16;;;;;;;20.63;14.18;;;;;;;4.21;100.00;101363.28;4866685;29;19932;-49
2021/12/11 09:54:15;;;;;;;20.95;13.90;;;;;;;4.20;100.00;101375.09;4875655;29;20060;-49
2021/12/11 09:57:13;;;;;;;20.50;14.88;;;;;;;4.19;100.00;101376.13;4877038;29;20514;-50
2021/12/11 10:00:08;;;;;;;19.52;13.57;;;;;;;4.22;100.00;101386.50;4883344;29;20052;-47
2021/12/11 10:03:01;;;;;;;21.33;14.65;;;;;;;4.21;100.00;101387.56;4897560;29;20132;-46
2021/12/11 10:06:00;;;;;;;19.25;15.18;;;;;;;4.15;100.00;101398.34;4895027;29;20053;-50
2021/12/11 10:08:57;;;;;;;20.23;14.52;;;;;;;4.09;100.00;101393.78;4879946;29;20064;-46
2021/12/11 10:11:59;;;;;;;21.75;16.35;;;;;;;4.12;100.00;101390.69;4878328;29;20052;-51
2021/12/11 10:14:57;;;;;;;21.95;15.27;;;;;;;4.10;100.00;101388.19;4878580;29;20064;-47
2021/12/11 10:18:11;;;;;;;22.05;15.27;;;;;;;4.12;100.00;101405.00;4876418;29;20460;-46
2021/12/11 10:21:03;;;;;;;20.10;15.32;;;;;;;4.13;100.00;101406.63;4877979;29;20549;-49
2021/12/11 10:23:54;;;;;;;20.83;15.02;;;;;;;4.15;100.00;101422.63;4878730;29;20420;-47
2021/12/11 10:26:41;;;;;;;21.20;15.18;;;;;;;4.18;100.00;101420.31;4878978;29;20051;-51
2021/12/11 10:29:29;;;;;;;23.33;15.38;;;;;;;4.19;100.00;101435.47;4876330;29;20096;-48
2021/12/11 10:32:21;;;;;;;22.00;16.13;;;;;;;4.14;100.00;101429.88;4878012;29;20065;-49
2021/12/11 10:35:14;;;;;;;21.30;15.23;;;;;;;4.14;100.00;101424.50;4877741;29;20053;-48
2021/12/11 10:38:05;;;;;;;22.75;16.23;;;;;;;4.14;100.00;101432.59;4859693;29;20098;-51
2021/12/11 10:40:57;;;;;;;23.67;16.42;;;;;;;4.14;100.00;101429.88;4862621;29;20124;-46
2021/12/11 10:43:53;;;;;;;24.58;16.10;;;;;;;4.18;100.00;101439.19;4878393;29;20546;-47
2021/12/11 10:46:49;;;;;;;22.25;16.70;;;;;;;4.19;100.00;101446.25;4877507;29;20080;-52
2021/12/11 10:49:37;;;;;;;;;;;;;;;4.15;100.00;101438.81;4878107;29;20060;-52
2021/12/11 10:52:28;;;;;;;20.05;15.23;;;;;;;4.14;100.00;101437.16;4878041;29;19924;-55
2021/12/11 10:55:18;;;;;;;19.63;15.52;;;;;;;4.15;100.00;101438.81;4877025;29;20115;-48
2021/12/11 10:58:13;;;;;;;22.15;15.02;;;;;;;4.18;100.00;101449.97;4876053;29;20061;-48
2021/12/11 11:01:04;;;;;;;19.02;15.10;;;;;;;4.18;100.00;101460.78;4889423;29;20052;-47
2021/12/11 11:03:56;;;;;;;21.40;15.48;;;;;;;4.16;100.00;101465.56;4877029;29;20049;-51
2021/12/11 11:06:45;;;;;;;19.23;14.90;;;;;;;4.20;100.00;101474.88;4863422;29;20055;-50
2021/12/11 11:09:33;;;;;;;22.23;14.43;;;;;;;4.26;100.00;101479.44;4877653;29;20060;-50
2021/12/11 11:12:22;;;;;;;20.30;15.68;;;;;;;4.24;100.00;101486.09;4867284;29;20404;-46
2021/12/11 11:15:11;;;;;;;21.38;15.82;;;;;;;4.23;100.00;101493.38;4873741;29;20077;-48
2021/12/11 11:17:58;;;;;;;25.40;16.67;;;;;;;4.24;100.00;101495.00;4877301;29;20116;-50
2021/12/11 11:20:36;;;;;;;23.80;15.23;;;;;;;4.26;100.00;101495.63;4861372;29;20076;-51
2021/12/11 11:23:24;;;;;;;23.77;16.92;;;;;;;4.30;100.00;101495.22;4863395;29;20049;-48
2021/12/11 11:26:15;;;;;;;26.63;18.08;;;;;;;4.33;100.00;101511.81;4861373;29;20045;-47
2021/12/11 11:29:06;;;;;;;27.63;18.45;;;;;;;4.38;100.00;101516.59;4873746;29;20053;-48
2021/12/11 11:31:57;;;;;;;25.98;18.35;;;;;;;4.42;100.00;101520.50;4848343;29;20049;-53
2021/12/11 11:34:45;;;;;;;24.30;16.80;;;;;;;4.43;100.00;101522.19;4874072;29;20092;-49
2021/12/11 11:37:35;;;;;;;22.98;16.23;;;;;;;4.43;100.00;101523.00;4875140;29;20045;-52
2021/12/11 11:40:27;;;;;;;24.23;16.80;;;;;;;4.47;100.00;101523.41;4874895;29;20089;-48
2021/12/11 11:43:15;;;;;;;24.50;16.65;;;;;;;4.50;100.00;101523.00;4871002;29;20064;-48
2021/12/11 11:46:03;;;;;;;24.42;16.02;;;;;;;4.55;100.00;101517.78;4872738;29;20515;-48
2021/12/11 11:48:54;;;;;;;25.38;16.92;;;;;;;4.61;100.00;101516.94;4871752;29;20049;-49
2021/12/11 11:51:45;;;;;;;27.27;18.35;;;;;;;4.67;100.00;101528.78;4876050;29;20049;-48
2021/12/11 11:54:33;;;;;;;28.27;19.02;;;;;;;4.71;100.00;101535.38;4872332;29;20406;-48
2021/12/11 11:57:26;;;;;;;27.23;17.80;;;;;;;4.75;100.00;101535.81;4861289;29;20054;-47
2021/12/11 12:00:21;;;;;;;26.85;19.40;;;;;;;4.77;100.00;101545.34;4866901;29;20056;-47
2021/12/11 12:03:10;;;;;;;25.85;18.92;;;;;;;4.83;100.00;101558.00;4859931;29;20052;-45
2021/12/11 12:06:01;;;;;;;28.98;18.77;;;;;;;4.89;100.00;101548.22;4872621;29;20057;-47
2021/12/11 12:08:50;;;;;;;25.35;17.02;;;;;;;4.94;100.00;101553.81;4860403;29;20053;-48
2021/12/11 12:11:39;;;;;;;23.90;15.60;;;;;;;4.98;100.00;101565.88;4874547;29;20772;-44
2021/12/11 12:14:30;;;;;;;23.77;15.43;;;;;;;5.03;100.00;101557.13;4868720;29;20057;-50
2021/12/11 12:17:22;;;;;;;21.02;14.50;;;;;;;5.08;100.00;101555.44;4861775;29;20164;-49
2021/12/11 12:20:14;;;;;;;20.48;14.57;;;;;;;5.13;100.00;101560.19;4876237;29;20083;-48
2021/12/11 12:23:03;;;;;;;20.23;14.23;;;;;;;5.16;100.00;101562.47;4874339;29;20079;-50
2021/12/11 12:25:53;;;;;;;23.70;14.60;;;;;;;5.21;100.00;101556.44;4537162;29;10000138;-49
2021/12/11 12:28:42;;;;;;;20.85;13.60;;;;;;;5.24;100.00;101570.34;4874036;29;20057;-47
2021/12/11 12:31:37;;;;;;;19.55;12.75;;;;;;;5.27;100.00;101571.78;4872488;29;20061;-49
2021/12/11 12:34:26;;;;;;;19.73;12.18;;;;;;;5.29;100.00;101572.38;4871282;29;20084;-50
2021/12/11 12:37:14;;;;;;;17.65;11.48;;;;;;;5.32;100.00;101571.97;4859135;29;20048;-49
2021/12/11 12:40:07;;;;;;;19.10;11.35;;;;;;;5.34;100.00;101570.72;4872127;29;20472;-49
2021/12/11 12:43:04;;;;;;;15.30;8.40;;;;;;;5.38;100.00;101570.28;4871443;29;20057;-48
2021/12/11 12:45:52;;;;;;;13.98;7.30;;;;;;;5.40;100.00;101566.31;4859583;29;20622;-50
2021/12/11 12:48:40;;;;;;;15.07;8.00;;;;;;;5.42;100.00;101563.41;4861618;29;20199;-49
2021/12/11 12:51:30;;;;;;;12.02;6.40;;;;;;;5.43;100.00;101575.88;4874198;29;20052;-47
2021/12/11 12:54:20;;;;;;;11.95;6.38;;;;;;;5.47;100.00;101566.28;4871243;29;20049;-51
2021/12/11 12:57:16;;;;;;;16.13;8.63;;;;;;;5.47;100.00;101572.53;4871565;29;20052;-49
2021/12/11 13:00:40;;;;;;;14.82;7.35;;;;;;;5.48;100.00;101578.75;4871401;29;20064;-47
2021/12/11 13:03:32;;;;;;;13.10;7.30;;;;;;;5.50;100.00;101584.78;4871369;29;20057;-49
2021/12/11 13:06:30;;;;;;;13.68;6.95;;;;;;;5.51;100.00;101579.16;4873563;29;20064;-47
2021/12/11 13:09:32;;;;;;;15.80;5.82;;;;;;;5.53;100.00;101590.59;4871941;29;20079;-49
2021/12/11 13:12:37;;;;;;;11.98;5.38;;;;;;;5.57;100.00;101598.25;4870673;29;20063;-52
2021/12/11 13:15:32;;;;;;;16.77;4.65;;;;;;;5.60;100.00;101600.53;4842619;29;20053;-49
2021/12/11 13:18:23;;;;;;;15.15;4.55;;;;;;;5.64;100.00;101599.88;4868404;29;20109;-51
2021/12/11 13:21:16;;;;;;;13.55;4.10;;;;;;;5.69;100.00;101607.34;4874136;29;20065;-47